Bay Phoenix — A8OE5 — position and weather

sailwx.info

Track history (hours):
 
Tides and Currents Weather Stations Pressure Air Temp Water Temp Dewpoint Dewpoint Depression Visibility Wind Speed Wind Dir Waves Ship Positions

Bay Phoenix

Last reported at 2016-Jul-10 00:18 UTC. Time now 2016-Jul-25 00:16 UTC.
Position N 05°15' W 004°00'.
Warning: this ship's position is 14 days out of date.

Length 134 m; draft 4.8 m.

Type: Cargo ship. MMSI: 636015543.

Date/timePositionNaut miles runAvg speedWind from/ knotsBaromVisibWave heightAir tempDewpointWater temp
2016-Jul-10 00:18N 05°15' W 004°00'4 0.6
2016-Jul-09 18:30N 05°18' W 004°01'0 0.0
2016-Jul-09 14:11N 05°18' W 004°01'0 0.0
2016-Jul-09 12:15N 05°18' W 004°01'0 0.0
2016-Jul-09 10:15N 05°18' W 004°01'0 0.0
2016-Jul-09 08:15N 05°18' W 004°01'0 0.0
2016-Jul-09 06:08N 05°18' W 004°01'0 0.0
2016-Jul-09 03:08N 05°18' W 004°01'0 0.0
2016-Jul-09 01:30N 05°18' W 004°01'0 0.0
2016-Jul-08 22:29N 05°18' W 004°01'0 0.0
2016-Jul-08 21:07N 05°18' W 004°01'0 0.0
2016-Jul-08 17:04N 05°18' W 004°01'0 0.0
2016-Jul-08 09:05N 05°18' W 004°01'0 0.0
2016-Jul-08 08:18N 05°18' W 004°01'0 0.0
2016-Jul-08 06:19N 05°18' W 004°01'0 0.0
2016-Jul-08 03:28N 05°18' W 004°01'0 0.0
2016-Jul-08 01:17N 05°18' W 004°01'0 0.0
2016-Jul-07 19:23N 05°18' W 004°01'0 0.0
2016-Jul-07 15:07N 05°18' W 004°01'0 0.0
2016-Jul-07 11:05N 05°18' W 004°01'0 0.0
2016-Jul-07 10:11N 05°18' W 004°01'0 0.0
2016-Jul-07 07:04N 05°18' W 004°01'0 0.0
2016-Jul-07 05:26N 05°18' W 004°01'0 0.0
2016-Jul-07 02:17N 05°18' W 004°01'0 0.0
2016-Jul-07 01:28N 05°18' W 004°01'0 0.0
2016-Jul-07 00:11N 05°18' W 004°01'0 0.0
2016-Jul-06 23:19N 05°18' W 004°01'0 0.0
2016-Jul-06 21:08N 05°18' W 004°01'0 0.0
2016-Jul-06 17:14N 05°18' W 004°01'0 0.0
2016-Jul-06 16:33N 05°18' W 004°01'0 0.0
2016-Jul-06 15:22N 05°18' W 004°01'0 0.0
2016-Jul-06 13:10N 05°18' W 004°01'0 0.0
2016-Jul-06 10:28N 05°18' W 004°01'0 0.0
2016-Jul-06 09:32N 05°18' W 004°01'0 0.0
2016-Jul-06 06:26N 05°18' W 004°01'0 0.0
2016-Jul-06 01:23N 05°18' W 004°01'0 0.0
2016-Jul-05 22:27N 05°18' W 004°01'0 0.0
2016-Jul-05 18:20N 05°18' W 004°01'0 0.0
2016-Jul-05 14:26N 05°18' W 004°01'0 0.0
2016-Jul-05 13:11N 05°18' W 004°01'0 0.0
2016-Jul-05 08:11N 05°18' W 004°01'0 0.0
2016-Jul-05 06:18N 05°18' W 004°01'0 0.0
2016-Jul-05 02:10N 05°18' W 004°01'0 0.0
2016-Jul-04 19:19N 05°18' W 004°01'0 0.1
2016-Jul-04 18:31N 05°18' W 004°02'4 4.2
2016-Jul-04 17:30N 05°15' W 003°60'3 0.4
2016-Jul-04 10:30N 05°13' W 004°02'3 1.9
2016-Jul-04 09:03N 05°13' W 003°59'0 0.3
2016-Jul-04 08:31N 05°13' W 003°59'5 4.7
2016-Jul-04 07:33N 05°13' W 004°03'0 0.0
2016-Jul-03 23:30N 05°13' W 004°04'  
Track history (hours):
 
Tides and Currents Weather Stations Pressure Air Temp Water Temp Dewpoint Dewpoint Depression Visibility Wind Speed Wind Dir Waves Ship Positions

Bay Phoenix

Last reported at 2016-Jul-10 00:18 UTC. Time now 2016-Jul-25 00:16 UTC.
Position N 05°15' W 004°00'.
Warning: this ship's position is 14 days out of date.

Length 134 m; draft 4.8 m.

Type: Cargo ship. MMSI: 636015543.

Date/timePositionNaut miles runAvg speedWind from/ knotsBaromVisibWave heightAir tempDewpointWater temp
2016-Jul-10 00:18N 05°15' W 004°00'4 0.6
2016-Jul-09 18:30N 05°18' W 004°01'0 0.0
2016-Jul-09 14:11N 05°18' W 004°01'0 0.0
2016-Jul-09 12:15N 05°18' W 004°01'0 0.0
2016-Jul-09 10:15N 05°18' W 004°01'0 0.0
2016-Jul-09 08:15N 05°18' W 004°01'0 0.0
2016-Jul-09 06:08N 05°18' W 004°01'0 0.0
2016-Jul-09 03:08N 05°18' W 004°01'0 0.0
2016-Jul-09 01:30N 05°18' W 004°01'0 0.0
2016-Jul-08 22:29N 05°18' W 004°01'0 0.0
2016-Jul-08 21:07N 05°18' W 004°01'0 0.0
2016-Jul-08 17:04N 05°18' W 004°01'0 0.0
2016-Jul-08 09:05N 05°18' W 004°01'0 0.0
2016-Jul-08 08:18N 05°18' W 004°01'0 0.0
2016-Jul-08 06:19N 05°18' W 004°01'0 0.0
2016-Jul-08 03:28N 05°18' W 004°01'0 0.0
2016-Jul-08 01:17N 05°18' W 004°01'0 0.0
2016-Jul-07 19:23N 05°18' W 004°01'0 0.0
2016-Jul-07 15:07N 05°18' W 004°01'0 0.0
2016-Jul-07 11:05N 05°18' W 004°01'0 0.0
2016-Jul-07 10:11N 05°18' W 004°01'0 0.0
2016-Jul-07 07:04N 05°18' W 004°01'0 0.0
2016-Jul-07 05:26N 05°18' W 004°01'0 0.0
2016-Jul-07 02:17N 05°18' W 004°01'0 0.0
2016-Jul-07 01:28N 05°18' W 004°01'0 0.0
2016-Jul-07 00:11N 05°18' W 004°01'0 0.0
2016-Jul-06 23:19N 05°18' W 004°01'0 0.0
2016-Jul-06 21:08N 05°18' W 004°01'0 0.0
2016-Jul-06 17:14N 05°18' W 004°01'0 0.0
2016-Jul-06 16:33N 05°18' W 004°01'0 0.0
2016-Jul-06 15:22N 05°18' W 004°01'0 0.0
2016-Jul-06 13:10N 05°18' W 004°01'0 0.0
2016-Jul-06 10:28N 05°18' W 004°01'0 0.0
2016-Jul-06 09:32N 05°18' W 004°01'0 0.0
2016-Jul-06 06:26N 05°18' W 004°01'0 0.0
2016-Jul-06 01:23N 05°18' W 004°01'0 0.0
2016-Jul-05 22:27N 05°18' W 004°01'0 0.0
2016-Jul-05 18:20N 05°18' W 004°01'0 0.0
2016-Jul-05 14:26N 05°18' W 004°01'0 0.0
2016-Jul-05 13:11N 05°18' W 004°01'0 0.0
2016-Jul-05 08:11N 05°18' W 004°01'0 0.0
2016-Jul-05 06:18N 05°18' W 004°01'0 0.0
2016-Jul-05 02:10N 05°18' W 004°01'0 0.0
2016-Jul-04 19:19N 05°18' W 004°01'0 0.1
2016-Jul-04 18:31N 05°18' W 004°02'4 4.2
2016-Jul-04 17:30N 05°15' W 003°60'3 0.4
2016-Jul-04 10:30N 05°13' W 004°02'3 1.9
2016-Jul-04 09:03N 05°13' W 003°59'0 0.3
2016-Jul-04 08:31N 05°13' W 003°59'5 4.7
2016-Jul-04 07:33N 05°13' W 004°03'0 0.0
2016-Jul-03 23:30N 05°13' W 004°04'  

Dump ship's entire track history